메인 페이지
METAR-TAF:

METAR-TAF

공항 :

바마코, 말리

위도: 12-32N, 경도: 007-57W, 고도: 380m

현재 날씨관측

예보는 22분 전, 16:00시(UTC)에 발표되었습니다.
북북서7kt서북서풍과 북동풍을 오가는
온도 31°C
습도 59%
기압 1014 hPa
시정 10km 이상
고도 2000ft 상공 구름 많음

METAR: GABS 061600Z 34007KT 290V050 9999 BKN020 31/22 Q1014 NOSIG

시각: 16:22 (16:22 UTC)

예보

예보는 5 시간 22분 전, 11:00시(UTC)에 발표되었습니다.
예보 대상 시간: 06일 12시부터 07일 18시까지 (UTC)
서북서8kt
시정 10km 이상
고도 2000ft 상공 구름 조금
확률 40% :
일시적
06일 15시부터 06일 18시까지 (UTC)
여러 방향의 바람 15kt, 순간 최대 풍속 30kt
시정: 3000m
고도 2000ft 상공 구름 많음
고도 2500ft 상공 구름 조금, 적란운.
뇌우, 소나기
확률 40% :
일시적
07일 06시부터 07일 14시까지 (UTC)
20kt, 순간 최대 풍속 35kt
시정: 2000m
고도 2000ft 상공 구름 많음
고도 2500ft 상공 구름 보통, 적란운.
뇌우, 강한비

TAF: GABS 061100Z 0612/0718 30008KT 9999 FEW020 PROB40 TEMPO 0615/0618 VRB15G30KT 3000 TS SHRA BKN020 FEW025CB PROB40 TEMPO 0706/0714 08020G35KT 2000 +TSRA BKN020 SCT025CB

4,000개 이상의 공항 관측 자료 및 예보 (METAR 및 TAF 보고).

지도상에서 검색 가능한 기상관측소가 노란 점과 빨간 점으로 표시되어 있습니다.

기상관측소 명을 보려면 표시 위로 마우스를 이동하세요.

날씨 관측과 예보를 보려면 클릭하세요.

지도 변경 : 확대하려면 엑스 표시가 있는 녹색 버튼, 축소하려면 빼기 표시가 있는 녹색 버튼, 다음 페이지의 지도를 보려면 녹색 화살표를 클릭하세요.


METAR-TAF: